sensor_id;sensor_type;location;lat;lon;timestamp;temperature;humidity
77039;DHT22;65970;50.476;4.840;2023-12-04T00:02:35;2.40;36.00
77039;DHT22;65970;50.476;4.840;2023-12-04T00:07:35;2.40;35.90
77039;DHT22;65970;50.476;4.840;2023-12-04T00:12:36;2.40;35.90
77039;DHT22;65970;50.476;4.840;2023-12-04T00:17:36;2.40;36.00
77039;DHT22;65970;50.476;4.840;2023-12-04T00:22:38;2.40;35.80
77039;DHT22;65970;50.476;4.840;2023-12-04T00:27:38;2.40;35.80
77039;DHT22;65970;50.476;4.840;2023-12-04T00:32:39;2.40;35.80
77039;DHT22;65970;50.476;4.840;2023-12-04T00:37:39;2.40;35.90
77039;DHT22;65970;50.476;4.840;2023-12-04T00:42:40;2.40;35.80
77039;DHT22;65970;50.476;4.840;2023-12-04T00:47:40;2.40;35.70
77039;DHT22;65970;50.476;4.840;2023-12-04T00:52:41;2.40;35.70
77039;DHT22;65970;50.476;4.840;2023-12-04T00:57:42;2.40;35.70
77039;DHT22;65970;50.476;4.840;2023-12-04T01:02:42;2.40;35.70
77039;DHT22;65970;50.476;4.840;2023-12-04T01:07:43;2.40;35.50
77039;DHT22;65970;50.476;4.840;2023-12-04T01:12:43;2.40;35.50
77039;DHT22;65970;50.476;4.840;2023-12-04T01:17:44;2.40;35.50
77039;DHT22;65970;50.476;4.840;2023-12-04T01:22:44;2.40;35.60
77039;DHT22;65970;50.476;4.840;2023-12-04T01:27:45;2.40;35.70
77039;DHT22;65970;50.476;4.840;2023-12-04T01:32:45;2.40;35.60
77039;DHT22;65970;50.476;4.840;2023-12-04T01:37:46;2.40;35.70
77039;DHT22;65970;50.476;4.840;2023-12-04T01:42:47;2.40;35.60
77039;DHT22;65970;50.476;4.840;2023-12-04T01:47:47;2.40;35.60
77039;DHT22;65970;50.476;4.840;2023-12-04T01:52:49;2.40;35.60
77039;DHT22;65970;50.476;4.840;2023-12-04T01:57:50;2.40;35.60
77039;DHT22;65970;50.476;4.840;2023-12-04T02:02:51;2.40;35.70
77039;DHT22;65970;50.476;4.840;2023-12-04T02:07:52;2.40;35.80
77039;DHT22;65970;50.476;4.840;2023-12-04T02:12:53;2.40;35.70
77039;DHT22;65970;50.476;4.840;2023-12-04T02:17:54;2.40;35.60
77039;DHT22;65970;50.476;4.840;2023-12-04T02:22:55;2.40;35.70
77039;DHT22;65970;50.476;4.840;2023-12-04T02:27:58;2.40;35.60
77039;DHT22;65970;50.476;4.840;2023-12-04T02:33:00;2.40;35.60
77039;DHT22;65970;50.476;4.840;2023-12-04T02:38:02;2.40;35.50
77039;DHT22;65970;50.476;4.840;2023-12-04T02:43:03;2.40;35.50
77039;DHT22;65970;50.476;4.840;2023-12-04T02:48:04;2.50;35.50
77039;DHT22;65970;50.476;4.840;2023-12-04T02:53:04;2.50;35.50
77039;DHT22;65970;50.476;4.840;2023-12-04T02:58:05;2.50;35.60
77039;DHT22;65970;50.476;4.840;2023-12-04T03:03:05;2.50;35.50
77039;DHT22;65970;50.476;4.840;2023-12-04T03:08:06;2.50;35.40
77039;DHT22;65970;50.476;4.840;2023-12-04T03:13:06;2.50;35.50
77039;DHT22;65970;50.476;4.840;2023-12-04T03:18:07;2.50;35.50
77039;DHT22;65970;50.476;4.840;2023-12-04T03:23:08;2.50;35.50
77039;DHT22;65970;50.476;4.840;2023-12-04T03:28:08;2.50;35.50
77039;DHT22;65970;50.476;4.840;2023-12-04T03:33:09;2.50;35.50
77039;DHT22;65970;50.476;4.840;2023-12-04T03:38:09;2.50;35.50
77039;DHT22;65970;50.476;4.840;2023-12-04T03:43:10;2.50;35.40
77039;DHT22;65970;50.476;4.840;2023-12-04T03:48:10;2.50;35.40
77039;DHT22;65970;50.476;4.840;2023-12-04T03:53:12;2.50;35.50
77039;DHT22;65970;50.476;4.840;2023-12-04T03:58:13;2.50;35.50
77039;DHT22;65970;50.476;4.840;2023-12-04T04:03:13;2.50;35.50
77039;DHT22;65970;50.476;4.840;2023-12-04T04:08:14;2.50;35.60
77039;DHT22;65970;50.476;4.840;2023-12-04T04:13:14;2.50;35.40
77039;DHT22;65970;50.476;4.840;2023-12-04T04:18:15;2.50;35.30
77039;DHT22;65970;50.476;4.840;2023-12-04T04:23:15;2.60;35.10
77039;DHT22;65970;50.476;4.840;2023-12-04T04:28:16;2.60;35.00
77039;DHT22;65970;50.476;4.840;2023-12-04T04:33:17;2.60;34.60
77039;DHT22;65970;50.476;4.840;2023-12-04T04:38:17;2.60;34.60
77039;DHT22;65970;50.476;4.840;2023-12-04T04:43:19;2.60;34.60
77039;DHT22;65970;50.476;4.840;2023-12-04T04:48:19;2.60;34.60
77039;DHT22;65970;50.476;4.840;2023-12-04T04:53:20;2.60;34.70
77039;DHT22;65970;50.476;4.840;2023-12-04T04:58:20;2.60;34.70
77039;DHT22;65970;50.476;4.840;2023-12-04T05:03:21;2.60;34.60
77039;DHT22;65970;50.476;4.840;2023-12-04T05:08:22;2.60;34.60
77039;DHT22;65970;50.476;4.840;2023-12-04T05:13:22;2.60;34.60
77039;DHT22;65970;50.476;4.840;2023-12-04T05:18:23;2.60;34.60
77039;DHT22;65970;50.476;4.840;2023-12-04T05:23:23;2.60;34.50
77039;DHT22;65970;50.476;4.840;2023-12-04T05:28:24;2.60;34.50
77039;DHT22;65970;50.476;4.840;2023-12-04T05:33:24;2.60;34.60
77039;DHT22;65970;50.476;4.840;2023-12-04T05:38:25;2.60;34.40
77039;DHT22;65970;50.476;4.840;2023-12-04T05:43:25;2.60;34.50
77039;DHT22;65970;50.476;4.840;2023-12-04T05:48:26;2.70;34.50
77039;DHT22;65970;50.476;4.840;2023-12-04T05:53:27;2.60;34.40
77039;DHT22;65970;50.476;4.840;2023-12-04T05:58:27;2.70;34.00
77039;DHT22;65970;50.476;4.840;2023-12-04T06:03:28;2.70;33.40
77039;DHT22;65970;50.476;4.840;2023-12-04T06:08:28;2.70;33.90
77039;DHT22;65970;50.476;4.840;2023-12-04T06:13:29;2.70;33.90
77039;DHT22;65970;50.476;4.840;2023-12-04T06:18:29;2.70;33.90
77039;DHT22;65970;50.476;4.840;2023-12-04T06:23:30;2.70;34.10
77039;DHT22;65970;50.476;4.840;2023-12-04T06:28:31;2.70;34.10
77039;DHT22;65970;50.476;4.840;2023-12-04T06:33:32;2.70;33.90
77039;DHT22;65970;50.476;4.840;2023-12-04T06:38:33;2.70;34.10
77039;DHT22;65970;50.476;4.840;2023-12-04T06:43:37;2.70;33.90
77039;DHT22;65970;50.476;4.840;2023-12-04T06:48:38;2.80;34.20
77039;DHT22;65970;50.476;4.840;2023-12-04T06:53:38;2.80;34.20
77039;DHT22;65970;50.476;4.840;2023-12-04T06:58:39;2.80;34.00
77039;DHT22;65970;50.476;4.840;2023-12-04T07:03:39;2.80;33.90
77039;DHT22;65970;50.476;4.840;2023-12-04T07:08:40;2.80;33.90
77039;DHT22;65970;50.476;4.840;2023-12-04T07:13:41;2.80;34.00
77039;DHT22;65970;50.476;4.840;2023-12-04T07:18:42;2.80;34.00
77039;DHT22;65970;50.476;4.840;2023-12-04T07:23:42;2.80;33.80
77039;DHT22;65970;50.476;4.840;2023-12-04T07:28:43;2.90;34.00
77039;DHT22;65970;50.476;4.840;2023-12-04T07:33:43;2.90;33.90
77039;DHT22;65970;50.476;4.840;2023-12-04T07:38:44;2.90;34.10
77039;DHT22;65970;50.476;4.840;2023-12-04T07:43:45;2.90;33.80
77039;DHT22;65970;50.476;4.840;2023-12-04T07:48:45;2.90;34.10
77039;DHT22;65970;50.476;4.840;2023-12-04T07:53:46;2.90;34.20
77039;DHT22;65970;50.476;4.840;2023-12-04T07:58:47;2.90;34.20
77039;DHT22;65970;50.476;4.840;2023-12-04T08:03:47;2.90;33.20
77039;DHT22;65970;50.476;4.840;2023-12-04T08:08:48;2.90;34.10
77039;DHT22;65970;50.476;4.840;2023-12-04T08:13:48;2.90;34.10
77039;DHT22;65970;50.476;4.840;2023-12-04T08:18:49;3.00;34.00
77039;DHT22;65970;50.476;4.840;2023-12-04T08:23:49;2.90;34.00
77039;DHT22;65970;50.476;4.840;2023-12-04T08:28:53;2.90;34.20
77039;DHT22;65970;50.476;4.840;2023-12-04T08:33:53;3.00;34.00
77039;DHT22;65970;50.476;4.840;2023-12-04T08:38:54;3.00;34.20
77039;DHT22;65970;50.476;4.840;2023-12-04T08:43:54;3.00;34.10
77039;DHT22;65970;50.476;4.840;2023-12-04T08:48:55;3.00;34.20
77039;DHT22;65970;50.476;4.840;2023-12-04T08:53:56;3.00;34.30
77039;DHT22;65970;50.476;4.840;2023-12-04T08:58:56;3.00;34.30
77039;DHT22;65970;50.476;4.840;2023-12-04T09:03:57;3.00;34.40
77039;DHT22;65970;50.476;4.840;2023-12-04T09:08:57;3.00;34.40
77039;DHT22;65970;50.476;4.840;2023-12-04T09:13:58;3.10;34.50
77039;DHT22;65970;50.476;4.840;2023-12-04T09:18:58;3.10;34.60
77039;DHT22;65970;50.476;4.840;2023-12-04T09:23:59;3.10;34.70
77039;DHT22;65970;50.476;4.840;2023-12-04T09:28:59;3.10;34.80
77039;DHT22;65970;50.476;4.840;2023-12-04T09:34:00;3.10;34.80
77039;DHT22;65970;50.476;4.840;2023-12-04T09:39:01;3.10;34.80
77039;DHT22;65970;50.476;4.840;2023-12-04T09:44:01;3.10;34.80
77039;DHT22;65970;50.476;4.840;2023-12-04T09:49:02;3.10;34.90
77039;DHT22;65970;50.476;4.840;2023-12-04T09:54:04;3.10;34.90
77039;DHT22;65970;50.476;4.840;2023-12-04T09:59:06;3.10;35.00
77039;DHT22;65970;50.476;4.840;2023-12-04T10:04:08;3.10;35.00
77039;DHT22;65970;50.476;4.840;2023-12-04T10:09:09;3.20;35.10
77039;DHT22;65970;50.476;4.840;2023-12-04T10:14:17;3.20;35.10
77039;DHT22;65970;50.476;4.840;2023-12-04T10:19:21;3.20;35.30
77039;DHT22;65970;50.476;4.840;2023-12-04T10:29:30;3.20;35.40
77039;DHT22;65970;50.476;4.840;2023-12-04T10:34:42;3.20;35.40
77039;DHT22;65970;50.476;4.840;2023-12-04T10:39:46;3.30;35.70
77039;DHT22;65970;50.476;4.840;2023-12-04T10:44:47;3.30;35.70
77039;DHT22;65970;50.476;4.840;2023-12-04T10:49:57;3.30;35.80
77039;DHT22;65970;50.476;4.840;2023-12-04T10:54:58;3.30;35.90
77039;DHT22;65970;50.476;4.840;2023-12-04T11:00:02;3.30;36.00
77039;DHT22;65970;50.476;4.840;2023-12-04T11:05:13;3.40;36.00
77039;DHT22;65970;50.476;4.840;2023-12-04T11:10:15;3.40;36.00
77039;DHT22;65970;50.476;4.840;2023-12-04T11:15:18;3.40;36.00
77039;DHT22;65970;50.476;4.840;2023-12-04T11:20:21;3.40;36.10
77039;DHT22;65970;50.476;4.840;2023-12-04T11:25:24;3.50;36.10
77039;DHT22;65970;50.476;4.840;2023-12-04T11:30:26;3.50;36.20
77039;DHT22;65970;50.476;4.840;2023-12-04T11:35:27;3.60;36.30
77039;DHT22;65970;50.476;4.840;2023-12-04T11:40:28;3.60;36.10
77039;DHT22;65970;50.476;4.840;2023-12-04T11:45:32;3.60;36.10
77039;DHT22;65970;50.476;4.840;2023-12-04T11:50:33;3.70;36.40
77039;DHT22;65970;50.476;4.840;2023-12-04T11:55:35;3.70;36.20
77039;DHT22;65970;50.476;4.840;2023-12-04T12:00:42;3.70;36.50
77039;DHT22;65970;50.476;4.840;2023-12-04T12:05:42;3.70;36.50
77039;DHT22;65970;50.476;4.840;2023-12-04T12:10:43;3.70;36.60
77039;DHT22;65970;50.476;4.840;2023-12-04T12:15:50;3.80;36.90
77039;DHT22;65970;50.476;4.840;2023-12-04T12:20:52;3.80;36.70
77039;DHT22;65970;50.476;4.840;2023-12-04T12:25:54;3.80;36.60
77039;DHT22;65970;50.476;4.840;2023-12-04T12:30:55;3.90;36.80
77039;DHT22;65970;50.476;4.840;2023-12-04T12:35:56;3.80;36.70
77039;DHT22;65970;50.476;4.840;2023-12-04T12:40:57;3.90;36.80
77039;DHT22;65970;50.476;4.840;2023-12-04T12:45:58;3.90;36.00
77039;DHT22;65970;50.476;4.840;2023-12-04T12:51:02;3.90;37.10
77039;DHT22;65970;50.476;4.840;2023-12-04T12:56:04;3.90;37.10
77039;DHT22;65970;50.476;4.840;2023-12-04T13:01:04;4.00;37.30
77039;DHT22;65970;50.476;4.840;2023-12-04T13:06:05;4.00;37.40
77039;DHT22;65970;50.476;4.840;2023-12-04T13:11:06;4.00;37.00
77039;DHT22;65970;50.476;4.840;2023-12-04T13:16:07;4.00;37.00
77039;DHT22;65970;50.476;4.840;2023-12-04T13:21:08;4.10;37.10
77039;DHT22;65970;50.476;4.840;2023-12-04T13:26:08;4.10;37.20
77039;DHT22;65970;50.476;4.840;2023-12-04T13:31:09;4.10;37.40
77039;DHT22;65970;50.476;4.840;2023-12-04T13:36:10;4.10;37.10
77039;DHT22;65970;50.476;4.840;2023-12-04T13:41:10;4.20;37.50
77039;DHT22;65970;50.476;4.840;2023-12-04T13:46:11;4.10;37.70
77039;DHT22;65970;50.476;4.840;2023-12-04T13:51:12;4.20;37.60
77039;DHT22;65970;50.476;4.840;2023-12-04T13:56:13;4.20;37.60
77039;DHT22;65970;50.476;4.840;2023-12-04T14:01:13;4.20;37.60
77039;DHT22;65970;50.476;4.840;2023-12-04T14:06:14;4.20;37.40
77039;DHT22;65970;50.476;4.840;2023-12-04T14:11:15;4.20;38.40
77039;DHT22;65970;50.476;4.840;2023-12-04T14:16:15;4.30;37.90
77039;DHT22;65970;50.476;4.840;2023-12-04T14:21:16;4.30;38.10
77039;DHT22;65970;50.476;4.840;2023-12-04T14:26:16;4.30;38.60
77039;DHT22;65970;50.476;4.840;2023-12-04T14:31:17;4.30;36.80
77039;DHT22;65970;50.476;4.840;2023-12-04T14:36:17;4.30;38.50
77039;DHT22;65970;50.476;4.840;2023-12-04T14:41:18;4.40;38.40
77039;DHT22;65970;50.476;4.840;2023-12-04T14:46:19;4.40;38.50
77039;DHT22;65970;50.476;4.840;2023-12-04T14:51:19;4.40;38.90
77039;DHT22;65970;50.476;4.840;2023-12-04T14:56:20;4.40;38.40
77039;DHT22;65970;50.476;4.840;2023-12-04T15:01:20;4.40;39.10
77039;DHT22;65970;50.476;4.840;2023-12-04T15:06:21;4.50;38.90
77039;DHT22;65970;50.476;4.840;2023-12-04T15:11:22;4.50;39.20
77039;DHT22;65970;50.476;4.840;2023-12-04T15:16:22;4.50;39.40
77039;DHT22;65970;50.476;4.840;2023-12-04T15:21:23;4.50;39.30
77039;DHT22;65970;50.476;4.840;2023-12-04T15:26:24;4.60;39.60
77039;DHT22;65970;50.476;4.840;2023-12-04T15:31:24;4.60;40.00
77039;DHT22;65970;50.476;4.840;2023-12-04T15:36:25;4.60;39.60
77039;DHT22;65970;50.476;4.840;2023-12-04T15:41:25;4.60;39.40
77039;DHT22;65970;50.476;4.840;2023-12-04T15:46:26;4.60;39.50
77039;DHT22;65970;50.476;4.840;2023-12-04T15:51:26;4.60;39.50
77039;DHT22;65970;50.476;4.840;2023-12-04T15:56:27;4.70;39.50
77039;DHT22;65970;50.476;4.840;2023-12-04T16:01:27;4.70;39.80
77039;DHT22;65970;50.476;4.840;2023-12-04T16:06:28;4.70;39.70
77039;DHT22;65970;50.476;4.840;2023-12-04T16:11:29;4.70;39.60
77039;DHT22;65970;50.476;4.840;2023-12-04T16:16:29;4.70;39.70
77039;DHT22;65970;50.476;4.840;2023-12-04T16:21:30;4.70;39.80
77039;DHT22;65970;50.476;4.840;2023-12-04T16:26:30;4.70;39.80
77039;DHT22;65970;50.476;4.840;2023-12-04T16:31:31;4.80;39.70
77039;DHT22;65970;50.476;4.840;2023-12-04T16:36:31;4.80;40.10
77039;DHT22;65970;50.476;4.840;2023-12-04T16:41:32;4.80;40.70
77039;DHT22;65970;50.476;4.840;2023-12-04T16:46:32;4.80;40.10
77039;DHT22;65970;50.476;4.840;2023-12-04T16:51:33;4.80;40.60
77039;DHT22;65970;50.476;4.840;2023-12-04T16:56:33;4.90;40.50
77039;DHT22;65970;50.476;4.840;2023-12-04T17:01:34;4.90;40.80
77039;DHT22;65970;50.476;4.840;2023-12-04T17:06:35;4.90;40.40
77039;DHT22;65970;50.476;4.840;2023-12-04T17:11:35;4.90;40.90
77039;DHT22;65970;50.476;4.840;2023-12-04T17:16:36;4.90;40.40
77039;DHT22;65970;50.476;4.840;2023-12-04T17:21:36;5.00;39.40
77039;DHT22;65970;50.476;4.840;2023-12-04T17:26:37;5.00;40.50
77039;DHT22;65970;50.476;4.840;2023-12-04T17:31:37;5.00;40.40
77039;DHT22;65970;50.476;4.840;2023-12-04T17:36:38;5.00;40.60
77039;DHT22;65970;50.476;4.840;2023-12-04T17:41:38;5.00;40.70
77039;DHT22;65970;50.476;4.840;2023-12-04T17:46:39;5.10;41.20
77039;DHT22;65970;50.476;4.840;2023-12-04T17:51:39;5.10;40.70
77039;DHT22;65970;50.476;4.840;2023-12-04T17:56:40;5.10;39.30
77039;DHT22;65970;50.476;4.840;2023-12-04T18:01:41;5.10;40.70
77039;DHT22;65970;50.476;4.840;2023-12-04T18:06:41;5.10;41.20
77039;DHT22;65970;50.476;4.840;2023-12-04T18:11:42;5.10;41.00
77039;DHT22;65970;50.476;4.840;2023-12-04T18:16:42;5.20;40.60
77039;DHT22;65970;50.476;4.840;2023-12-04T18:21:43;5.20;41.00
77039;DHT22;65970;50.476;4.840;2023-12-04T18:26:44;5.20;41.10
77039;DHT22;65970;50.476;4.840;2023-12-04T18:31:45;5.30;41.10
77039;DHT22;65970;50.476;4.840;2023-12-04T18:36:46;5.20;41.10
77039;DHT22;65970;50.476;4.840;2023-12-04T18:41:49;5.30;41.40
77039;DHT22;65970;50.476;4.840;2023-12-04T18:46:54;5.30;41.80
77039;DHT22;65970;50.476;4.840;2023-12-04T18:51:56;5.30;41.50
77039;DHT22;65970;50.476;4.840;2023-12-04T18:56:57;5.30;41.90
77039;DHT22;65970;50.476;4.840;2023-12-04T19:01:58;5.40;41.60
77039;DHT22;65970;50.476;4.840;2023-12-04T19:06:58;5.40;41.50
77039;DHT22;65970;50.476;4.840;2023-12-04T19:11:59;5.40;41.50
77039;DHT22;65970;50.476;4.840;2023-12-04T19:16:59;5.40;41.40
77039;DHT22;65970;50.476;4.840;2023-12-04T19:22:00;5.50;41.50
77039;DHT22;65970;50.476;4.840;2023-12-04T19:27:00;5.50;41.60
77039;DHT22;65970;50.476;4.840;2023-12-04T19:32:01;5.50;41.50
77039;DHT22;65970;50.476;4.840;2023-12-04T19:37:01;5.60;41.30
77039;DHT22;65970;50.476;4.840;2023-12-04T19:42:02;5.50;41.30
77039;DHT22;65970;50.476;4.840;2023-12-04T19:47:03;5.60;42.50
77039;DHT22;65970;50.476;4.840;2023-12-04T19:52:03;5.60;42.00
77039;DHT22;65970;50.476;4.840;2023-12-04T19:57:04;5.60;41.80
77039;DHT22;65970;50.476;4.840;2023-12-04T20:02:05;5.60;41.70
77039;DHT22;65970;50.476;4.840;2023-12-04T20:07:05;5.70;41.90
77039;DHT22;65970;50.476;4.840;2023-12-04T20:12:06;5.70;41.80
77039;DHT22;65970;50.476;4.840;2023-12-04T20:17:07;5.70;41.60
77039;DHT22;65970;50.476;4.840;2023-12-04T20:22:07;5.70;41.70
77039;DHT22;65970;50.476;4.840;2023-12-04T20:27:08;5.70;40.30
77039;DHT22;65970;50.476;4.840;2023-12-04T20:32:08;5.70;41.60
77039;DHT22;65970;50.476;4.840;2023-12-04T20:37:09;5.80;41.50
77039;DHT22;65970;50.476;4.840;2023-12-04T20:42:10;5.80;41.50
77039;DHT22;65970;50.476;4.840;2023-12-04T20:47:10;5.80;41.70
77039;DHT22;65970;50.476;4.840;2023-12-04T20:52:11;5.80;41.40
77039;DHT22;65970;50.476;4.840;2023-12-04T20:57:11;5.80;41.40
77039;DHT22;65970;50.476;4.840;2023-12-04T21:02:12;5.90;41.60
77039;DHT22;65970;50.476;4.840;2023-12-04T21:07:13;5.90;41.60
77039;DHT22;65970;50.476;4.840;2023-12-04T21:12:14;5.90;41.50
77039;DHT22;65970;50.476;4.840;2023-12-04T21:17:15;5.90;41.80
77039;DHT22;65970;50.476;4.840;2023-12-04T21:22:15;5.90;41.50
77039;DHT22;65970;50.476;4.840;2023-12-04T21:27:16;5.90;41.70
77039;DHT22;65970;50.476;4.840;2023-12-04T21:32:17;5.90;41.80
77039;DHT22;65970;50.476;4.840;2023-12-04T21:37:17;6.00;41.60
77039;DHT22;65970;50.476;4.840;2023-12-04T21:42:19;6.00;41.60
77039;DHT22;65970;50.476;4.840;2023-12-04T21:47:19;6.00;41.80
77039;DHT22;65970;50.476;4.840;2023-12-04T21:52:20;6.00;41.70
77039;DHT22;65970;50.476;4.840;2023-12-04T21:57:20;6.00;41.80
77039;DHT22;65970;50.476;4.840;2023-12-04T22:02:21;6.10;41.70
77039;DHT22;65970;50.476;4.840;2023-12-04T22:07:21;6.10;41.70
77039;DHT22;65970;50.476;4.840;2023-12-04T22:12:22;6.10;41.70
77039;DHT22;65970;50.476;4.840;2023-12-04T22:17:22;6.10;41.60
77039;DHT22;65970;50.476;4.840;2023-12-04T22:22:23;6.20;41.60
77039;DHT22;65970;50.476;4.840;2023-12-04T22:27:24;6.20;41.50
77039;DHT22;65970;50.476;4.840;2023-12-04T22:32:24;6.20;41.50
77039;DHT22;65970;50.476;4.840;2023-12-04T22:37:25;6.20;41.40
77039;DHT22;65970;50.476;4.840;2023-12-04T22:42:25;6.20;41.40
77039;DHT22;65970;50.476;4.840;2023-12-04T22:47:26;6.20;41.40
77039;DHT22;65970;50.476;4.840;2023-12-04T22:52:26;6.20;41.40
77039;DHT22;65970;50.476;4.840;2023-12-04T22:57:27;6.20;41.40
77039;DHT22;65970;50.476;4.840;2023-12-04T23:02:28;6.30;41.50
77039;DHT22;65970;50.476;4.840;2023-12-04T23:07:28;6.30;41.50
77039;DHT22;65970;50.476;4.840;2023-12-04T23:12:29;6.30;41.50
77039;DHT22;65970;50.476;4.840;2023-12-04T23:17:29;6.30;41.40
77039;DHT22;65970;50.476;4.840;2023-12-04T23:22:30;6.30;41.40
77039;DHT22;65970;50.476;4.840;2023-12-04T23:27:30;6.40;41.40
77039;DHT22;65970;50.476;4.840;2023-12-04T23:32:31;6.30;41.40
77039;DHT22;65970;50.476;4.840;2023-12-04T23:37:31;6.40;41.40
77039;DHT22;65970;50.476;4.840;2023-12-04T23:42:32;6.40;41.50
77039;DHT22;65970;50.476;4.840;2023-12-04T23:47:32;6.40;41.50
77039;DHT22;65970;50.476;4.840;2023-12-04T23:52:33;6.40;41.50
77039;DHT22;65970;50.476;4.840;2023-12-04T23:57:34;6.40;41.40
